Time;durP1;ratioP1;P1;durP2;ratioP2;P2;SDS_P1;SDS_P2;PMS_P1;PMS_P2;Temp;Humidity;BMP_temperature;BMP_pressure;BME280_temperature;BME280_humidity;BME280_pressure;Samples;Min_cycle;Max_cycle;Signal;HPM_P1;HPM_P2
2022/08/11 00:00:39;;;;;;;8.18;5.25;;;;;;;14.74;66.52;101184.66;1544303;91;25591;-67
2022/08/11 00:03:11;;;;;;;6.28;5.03;;;;;;;14.74;66.82;101189.28;1545607;91;25775;-67
2022/08/11 00:05:48;;;;;;;7.12;5.17;;;;;;;14.72;66.76;101188.23;1539599;91;25648;-66
2022/08/11 00:08:32;;;;;;;7.00;4.50;;;;;;;14.72;67.07;101187.44;1548440;90;27563;-65
2022/08/11 00:11:03;;;;;;;8.20;4.72;;;;;;;14.70;66.85;101186.39;1539056;91;25444;-66
2022/08/11 00:13:44;;;;;;;9.20;4.50;;;;;;;14.70;67.01;101191.05;1538576;91;25735;-66
2022/08/11 00:16:15;;;;;;;8.18;5.25;;;;;;;14.69;67.12;101194.88;1544426;91;25681;-66
2022/08/11 00:18:46;;;;;;;8.30;4.72;;;;;;;14.68;67.25;101189.20;1538662;91;25637;-66
2022/08/11 00:21:14;;;;;;;7.97;4.37;;;;;;;14.64;67.18;101189.03;1538812;91;26036;-67
2022/08/11 00:23:54;;;;;;;13.83;5.37;;;;;;;14.59;67.21;101186.42;1539498;90;25707;-67
2022/08/11 00:26:22;;;;;;;;;;;;;;;14.55;66.99;101188.14;1540763;91;25492;-65
2022/08/11 00:28:52;;;;;;;8.53;5.28;;;;;;;14.49;67.10;101187.49;1538317;92;25696;-65
2022/08/11 00:31:30;;;;;;;10.38;5.78;;;;;;;14.44;66.99;101181.36;1538596;91;25640;-65
2022/08/11 00:34:00;;;;;;;10.20;4.85;;;;;;;14.40;67.41;101182.55;1540151;91;27587;-66
2022/08/11 00:36:41;;;;;;;7.53;4.62;;;;;;;14.37;67.40;101179.11;1538337;91;25290;-67
2022/08/11 00:39:10;;;;;;;8.93;4.78;;;;;;;14.33;67.34;101181.63;1531123;91;25787;-67
2022/08/11 00:41:44;;;;;;;7.20;4.72;;;;;;;14.30;67.68;101182.28;1542114;91;25914;-65
2022/08/11 00:44:49;;;;;;;8.00;4.78;;;;;;;14.29;67.81;101185.31;1544377;91;25641;-65
2022/08/11 00:47:33;;;;;;;7.40;4.67;;;;;;;14.27;67.92;101183.44;1536092;91;27526;-66
2022/08/11 00:50:33;;;;;;;9.45;5.03;;;;;;;14.24;68.22;101189.53;1542112;90;25665;-67
2022/08/11 00:53:41;;;;;;;9.65;4.87;;;;;;;14.22;68.27;101184.92;1498269;94;25746;-67
2022/08/11 00:56:43;;;;;;;7.40;4.95;;;;;;;14.21;68.33;101190.94;1497929;94;25938;-68
2022/08/11 00:59:43;;;;;;;11.05;5.10;;;;;;;14.19;68.56;101195.89;1490962;94;25623;-67
2022/08/11 01:02:44;;;;;;;6.55;4.90;;;;;;;14.16;68.69;101189.14;1505735;94;27529;-67
2022/08/11 01:05:50;;;;;;;10.95;5.03;;;;;;;14.13;68.61;101191.69;1474280;94;25752;-66
2022/08/11 01:08:48;;;;;;;8.58;4.92;;;;;;;14.10;68.75;101193.69;1500580;94;26529;-65
2022/08/11 01:11:26;;;;;;;14.50;5.95;;;;;;;14.07;68.81;101184.22;1490964;94;26197;-65
2022/08/11 01:14:09;;;;;;;8.40;5.47;;;;;;;14.06;68.83;101188.61;1488379;95;25652;-67
2022/08/11 01:17:10;;;;;;;7.03;4.92;;;;;;;14.04;69.04;101191.63;1492936;94;28252;-68
2022/08/11 01:20:08;;;;;;;8.58;5.35;;;;;;;14.04;69.10;101184.04;1491865;94;25686;-69
2022/08/11 01:23:13;;;;;;;7.15;4.55;;;;;;;14.04;69.28;101182.68;1499292;94;25995;-66
2022/08/11 01:26:24;;;;;;;5.90;4.65;;;;;;;14.03;69.14;101181.88;1424329;99;25777;-65
2022/08/11 01:29:34;;;;;;;7.92;4.78;;;;;;;14.04;69.39;101182.68;1492875;93;25734;-66
2022/08/11 01:32:32;;;;;;;7.33;4.95;;;;;;;14.03;69.43;101183.78;1534866;92;27572;-66
2022/08/11 01:35:43;;;;;;;9.30;5.30;;;;;;;14.00;69.56;101183.86;1522845;93;25680;-66
2022/08/11 01:38:24;;;;;;;6.72;5.05;;;;;;;13.95;69.56;101184.78;1534416;92;25717;-66
2022/08/11 01:41:15;;;;;;;7.78;5.17;;;;;;;13.92;69.72;101184.03;1510903;93;26301;-65
2022/08/11 01:44:37;;;;;;;11.08;5.62;;;;;;;13.91;69.74;101185.16;1517183;93;25584;-65
2022/08/11 01:47:50;;;;;;;5.92;4.62;;;;;;;13.89;69.86;101184.65;1514935;93;27551;-64
2022/08/11 01:50:39;;;;;;;8.48;5.40;;;;;;;13.87;69.83;101186.09;1512742;93;25852;-66
2022/08/11 01:53:39;;;;;;;8.15;5.50;;;;;;;13.85;69.83;101185.59;1519365;93;25803;-65
2022/08/11 01:56:30;;;;;;;7.90;5.30;;;;;;;13.81;69.96;101191.65;1500546;94;25717;-65
2022/08/11 01:59:11;;;;;;;14.47;5.37;;;;;;;13.76;70.03;101189.62;1500708;94;25566;-65
2022/08/11 02:01:57;;;;;;;9.20;5.87;;;;;;;13.73;70.01;101186.15;1512822;93;27497;-65
2022/08/11 02:04:53;;;;;;;7.47;6.60;;;;;;;13.69;70.11;101185.97;1530782;92;25547;-65
2022/08/11 02:07:41;;;;;;;9.48;6.35;;;;;;;13.66;70.30;101190.66;1530859;92;25663;-64
2022/08/11 02:13:52;;;;;;;9.33;6.10;;;;;;;13.62;70.63;101189.11;1529589;92;25643;-64
2022/08/11 02:16:32;;;;;;;9.68;6.47;;;;;;;13.60;70.51;101191.88;1530854;92;27501;-64
2022/08/11 02:25:47;;;;;;;9.83;5.62;;;;;;;13.53;70.83;101190.14;1510616;92;25798;-65
2022/08/11 02:28:51;;;;;;;7.87;5.42;;;;;;;13.50;70.93;101197.54;1531783;92;25558;-64
2022/08/11 02:35:00;;;;;;;6.87;4.67;;;;;;;13.41;70.85;101209.13;1551432;90;27309;-65
2022/08/11 02:37:35;;;;;;;6.20;4.53;;;;;;;13.39;70.74;101206.48;1553373;91;25819;-64
2022/08/11 02:40:27;;;;;;;7.42;5.10;;;;;;;13.36;70.93;101201.09;1559204;91;25695;-64
2022/08/11 02:43:11;;;;;;;8.23;5.08;;;;;;;13.33;71.01;101199.01;1552099;91;25573;-66
2022/08/11 02:45:46;;;;;;;8.28;4.97;;;;;;;13.28;70.86;101204.52;1553689;90;27573;-64
2022/08/11 02:52:09;;;;;;;5.25;4.75;;;;;;;13.22;70.73;101209.24;1552769;91;25461;-64
2022/08/11 02:55:08;;;;;;;6.70;5.05;;;;;;;13.20;70.84;101206.59;1539279;92;25601;-64
2022/08/11 02:57:52;;;;;;;9.58;5.10;;;;;;;13.16;70.89;101202.33;1535563;92;25658;-65
2022/08/11 03:00:21;;;;;;;7.12;5.00;;;;;;;13.14;71.10;101213.23;1535220;92;28443;-65
2022/08/11 03:02:56;;;;;;;7.75;5.45;;;;;;;13.10;71.33;101210.88;1501742;94;25585;-65
2022/08/11 03:05:43;;;;;;;9.23;6.40;;;;;;;13.06;71.44;101216.92;1499382;94;25518;-64
2022/08/11 03:08:50;;;;;;;10.72;6.58;;;;;;;13.03;71.77;101214.80;1490392;94;25750;-66
2022/08/11 03:17:42;;;;;;;9.83;6.17;;;;;;;13.00;72.05;101214.61;1535808;92;25501;-65
2022/08/11 03:20:38;;;;;;;10.20;6.60;;;;;;;12.98;72.27;101212.19;1536015;92;25693;-65
2022/08/11 03:23:47;;;;;;;11.18;6.92;;;;;;;12.98;72.37;101218.19;1532094;92;25708;-65
2022/08/11 03:26:23;;;;;;;;;;;;;;;12.97;72.69;101217.36;1571805;88;25543;-65
2022/08/11 03:29:06;;;;;;;10.95;6.47;;;;;;;12.97;73.02;101216.00;1581151;88;27687;-66
2022/08/11 03:31:55;;;;;;;8.95;6.55;;;;;;;12.95;73.09;101216.06;1595314;88;25530;-65
2022/08/11 03:34:24;;;;;;;;;;;;;;;12.97;73.13;101218.72;1575140;88;25822;-66
2022/08/11 03:37:05;;;;;;;8.55;7.17;;;;;;;12.99;73.47;101215.17;1586267;89;32474;-67
2022/08/11 03:40:01;;;;;;;9.48;6.85;;;;;;;13.00;73.17;101219.47;1581617;89;25787;-66
2022/08/11 03:42:42;;;;;;;11.83;7.53;;;;;;;13.03;73.41;101216.72;1548437;90;28293;-65
2022/08/11 03:45:55;;;;;;;17.70;7.47;;;;;;;13.06;73.77;101223.70;1584574;89;25983;-65
2022/08/11 03:48:44;;;;;;;10.58;6.75;;;;;;;13.08;73.78;101226.13;1570683;90;25512;-66
2022/08/11 03:51:30;;;;;;;10.95;7.60;;;;;;;13.09;73.81;101222.28;1574259;90;25837;-65
2022/08/11 03:54:25;;;;;;;11.68;7.25;;;;;;;13.12;73.77;101224.96;1574302;90;25681;-65
2022/08/11 03:57:12;;;;;;;11.28;6.45;;;;;;;13.15;73.89;101221.64;1554141;91;27588;-64
2022/08/11 04:00:09;;;;;;;9.90;6.85;;;;;;;13.18;74.06;101219.13;1589213;89;25634;-66
2022/08/11 04:03:07;;;;;;;10.78;6.22;;;;;;;13.21;74.11;101217.69;1574023;89;25664;-65
2022/08/11 04:06:12;;;;;;;10.58;6.42;;;;;;;13.24;74.02;101218.45;1589005;89;25808;-64
2022/08/11 04:09:07;;;;;;;10.95;6.75;;;;;;;13.27;74.24;101221.36;1590506;89;25573;-65
2022/08/11 04:12:05;;;;;;;11.83;6.58;;;;;;;13.32;74.45;101223.20;1582191;89;28112;-66
2022/08/11 04:18:26;;;;;;;8.08;6.05;;;;;;;13.41;74.33;101220.56;1570100;90;25942;-66
2022/08/11 04:21:37;;;;;;;11.68;5.92;;;;;;;13.45;74.54;101221.58;1577382;90;25636;-66
2022/08/11 04:24:35;;;;;;;11.75;6.17;;;;;;;13.49;74.34;101217.13;1567341;90;25691;-65
2022/08/11 04:30:56;;;;;;;11.43;6.05;;;;;;;13.58;74.76;101224.80;1543930;91;25801;-67
2022/08/11 04:34:00;;;;;;;11.03;5.67;;;;;;;13.66;74.94;101219.77;1529498;92;25509;-66
2022/08/11 04:39:56;;;;;;;13.58;5.85;;;;;;;13.82;75.32;101223.18;1529138;92;25581;-65
2022/08/11 04:46:24;;;;;;;10.75;6.22;;;;;;;13.99;75.59;101224.40;1529395;92;25714;-66
2022/08/11 05:02:08;;;;;;;10.53;5.50;;;;;;;14.50;75.62;101229.91;1557134;90;25400;-67
2022/08/11 05:08:09;;;;;;;7.97;5.17;;;;;;;14.73;75.83;101241.59;1588224;89;26425;-66
2022/08/11 05:10:53;;;;;;;8.30;5.08;;;;;;;14.84;75.74;101239.39;1560120;89;25668;-67
2022/08/11 05:37:10;;;;;;;7.33;4.42;;;;;;;16.15;74.39;101231.95;1583898;88;25687;-67
2022/08/11 05:56:55;;;;;;;7.87;4.55;;;;;;;17.39;72.41;101227.04;1592474;88;27558;-67
2022/08/11 05:59:24;;;;;;;6.67;4.10;;;;;;;17.56;71.81;101224.17;1558672;90;25692;-67
2022/08/11 06:01:52;;;;;;;7.28;3.60;;;;;;;17.72;71.52;101226.55;1562479;90;25706;-67
2022/08/11 06:04:22;;;;;;;8.33;3.95;;;;;;;17.86;71.38;101214.50;1535823;92;25614;-67
2022/08/11 06:07:02;;;;;;;5.62;4.15;;;;;;;18.02;70.95;101213.34;1561145;90;25246;-66
2022/08/11 06:09:36;;;;;;;9.58;3.30;;;;;;;18.16;70.80;101213.83;1561218;90;27473;-67
2022/08/11 06:12:10;;;;;;;7.28;3.95;;;;;;;18.33;70.59;101225.17;1561162;90;25610;-66
2022/08/11 06:14:43;;;;;;;7.70;3.17;;;;;;;18.48;70.33;101231.36;1560506;91;25681;-66
2022/08/11 06:17:12;;;;;;;4.87;3.45;;;;;;;18.67;69.88;101228.08;1554494;90;25577;-67
2022/08/11 06:19:42;;;;;;;4.78;3.08;;;;;;;18.86;69.55;101237.70;1554993;90;25504;-66
2022/08/11 06:22:10;;;;;;;;;;;;;;;19.04;69.16;101236.92;1569456;90;28353;-66
2022/08/11 06:24:41;;;;;;;19.27;11.38;;;;;;;19.22;68.62;101236.91;1579717;89;25774;-67
2022/08/11 06:27:09;;;;;;;8.40;5.47;;;;;;;19.42;68.81;101235.72;1583481;89;25478;-67
2022/08/11 06:29:40;;;;;;;8.95;4.37;;;;;;;19.63;68.24;101227.34;1592990;88;25607;-65
2022/08/11 06:32:11;;;;;;;5.60;2.80;;;;;;;19.87;67.75;101227.84;1585420;89;25696;-66
2022/08/11 06:35:10;;;;;;;4.92;2.30;;;;;;;20.09;66.60;101230.61;1578410;89;27537;-66
2022/08/11 06:37:47;;;;;;;4.33;2.42;;;;;;;20.31;65.95;101226.48;1578207;89;25456;-66
2022/08/11 06:44:12;;;;;;;2.90;2.25;;;;;;;20.82;65.50;101222.24;1578112;89;25553;-65
2022/08/11 06:46:49;;;;;;;5.97;2.33;;;;;;;21.18;64.56;101218.39;1578293;89;25687;-67
2022/08/11 06:52:09;;;;;;;5.62;2.75;;;;;;;21.81;63.29;101217.37;1578315;89;26365;-66
2022/08/11 06:54:40;;;;;;;5.55;2.75;;;;;;;22.15;62.36;101221.75;1552393;90;25708;-66
2022/08/11 07:00:46;;;;;;;4.20;2.50;;;;;;;22.72;61.27;101217.02;1567981;90;25799;-66
2022/08/11 07:02:33;;;;;;;6.92;2.80;;;;;;;23.06;60.65;101206.14;1549302;89;27519;-67
2022/08/11 07:05:11;;;;;;;2.42;2.22;;;;;;;23.35;60.03;101212.05;1569021;90;25756;-68
2022/08/11 07:17:21;;;;;;;2.67;2.02;;;;;;;24.75;56.35;101210.77;1573758;89;27514;-68
2022/08/11 07:31:06;;;;;;;4.28;1.82;;;;;;;26.27;52.65;101211.62;1541341;91;27545;-69
2022/08/11 07:33:48;;;;;;;4.00;1.70;;;;;;;26.60;51.69;101211.84;1559052;90;26005;-69
2022/08/11 07:36:16;;;;;;;6.42;1.67;;;;;;;26.86;50.70;101218.79;1560820;90;25747;-69
2022/08/11 07:38:49;;;;;;;2.30;1.72;;;;;;;27.15;49.97;101205.63;1560882;89;25702;-69
2022/08/11 07:41:21;;;;;;;2.58;2.37;;;;;;;27.35;48.36;101215.12;1560802;90;25678;-68
2022/08/11 07:43:54;;;;;;;4.72;3.75;;;;;;;27.49;48.06;101210.70;1560759;90;27562;-68
2022/08/11 07:54:41;;;;;;;2.65;1.92;;;;;;;28.35;45.81;101205.23;1567218;90;25866;-69
2022/08/11 08:20:20;;;;;;;3.08;1.50;;;;;;;29.49;42.59;101188.00;1587956;89;26204;-68
2022/08/11 08:22:57;;;;;;;2.17;1.50;;;;;;;29.82;41.68;101187.59;1588300;88;25681;-68
2022/08/11 08:25:31;;;;;;;3.15;1.00;;;;;;;30.01;40.89;101190.28;1598554;88;28254;-68
2022/08/11 08:28:03;;;;;;;3.55;1.40;;;;;;;30.16;40.18;101193.03;1599946;88;25646;-69
2022/08/11 08:33:25;;;;;;;3.20;1.10;;;;;;;30.58;39.85;101183.79;1602604;88;25661;-66
2022/08/11 08:36:13;;;;;;;2.87;1.20;;;;;;;30.78;39.20;101184.42;1600520;88;25710;-68
2022/08/11 08:38:52;;;;;;;2.85;1.00;;;;;;;30.84;38.26;101189.70;1599899;88;26065;-67
2022/08/11 08:41:30;;;;;;;1.75;1.10;;;;;;;30.86;37.99;101178.88;1601582;88;25701;-67
2022/08/11 08:44:01;;;;;;;3.27;1.12;;;;;;;30.91;37.59;101190.34;1589223;88;25769;-68
2022/08/11 08:46:42;;;;;;;2.30;1.05;;;;;;;31.03;36.96;101183.98;1594680;88;25543;-68
2022/08/11 08:49:15;;;;;;;6.10;1.70;;;;;;;31.07;36.76;101183.28;1597351;88;25756;-68
2022/08/11 08:51:45;;;;;;;5.67;1.62;;;;;;;31.20;36.62;101184.84;1593215;88;27522;-67
2022/08/11 08:54:19;;;;;;;3.17;1.30;;;;;;;31.38;36.83;101179.66;1587100;89;26540;-68
2022/08/11 08:56:48;;;;;;;2.37;1.10;;;;;;;31.60;36.50;101184.80;1579124;89;25702;-68
2022/08/11 08:59:16;;;;;;;3.05;1.20;;;;;;;31.82;36.21;101183.70;1587211;89;25711;-68
2022/08/11 09:01:51;;;;;;;2.33;1.00;;;;;;;32.01;35.65;101182.05;1562186;90;25720;-69
2022/08/11 09:04:19;;;;;;;3.00;1.00;;;;;;;32.05;34.98;101177.80;1544630;88;27249;-69
2022/08/11 09:06:46;;;;;;;2.60;1.00;;;;;;;32.03;34.78;101174.81;1615702;87;25784;-70
2022/08/11 09:09:14;;;;;;;3.15;1.20;;;;;;;32.23;34.85;101176.75;1591652;88;25726;-69
2022/08/11 09:11:55;;;;;;;3.52;1.10;;;;;;;32.44;34.30;101176.02;1617709;87;25649;-69
2022/08/11 09:14:59;;;;;;;2.15;0.78;;;;;;;32.60;33.77;101169.00;1625496;88;25847;-71
2022/08/11 09:16:56;;;;;;;3.12;1.20;;;;;;;32.84;33.74;101174.40;1594103;88;28028;-69
2022/08/11 09:19:25;;;;;;;4.08;1.20;;;;;;;33.05;33.31;101174.40;1601915;88;25579;-69
2022/08/11 09:26:58;;;;;;;1.30;0.90;;;;;;;33.29;32.89;101191.15;1607123;88;25353;-67
2022/08/11 09:27:25;;;;;;;1.75;1.00;;;;;;;33.36;32.65;101172.56;1604413;88;25308;-67
2022/08/11 09:29:52;;;;;;;3.55;1.35;;;;;;;33.60;32.32;101171.63;1608931;88;27499;-68
2022/08/11 09:32:21;;;;;;;1.35;1.20;;;;;;;33.85;32.22;101166.03;1573135;90;25404;-67
2022/08/11 09:34:50;;;;;;;;;;;;;;;34.21;32.45;101162.08;1602317;88;25823;-68
2022/08/11 09:45:37;;;;;;;1.15;0.90;;;;;;;33.92;30.25;101153.80;1595332;88;25585;-71
2022/08/11 09:48:05;;;;;;;2.20;1.37;;;;;;;33.28;30.45;101157.33;1612714;88;25735;-69
2022/08/11 09:50:34;;;;;;;2.40;1.15;;;;;;;32.82;31.15;101153.05;1604170;88;25892;-67
2022/08/11 09:53:05;;;;;;;;;;;;;;;32.71;31.42;101139.33;1610987;88;25982;-68
2022/08/11 09:55:29;;;;;;;1.20;1.10;;;;;;;32.49;30.92;101147.52;1593206;88;29466;-67
2022/08/11 10:00:44;;;;;;;2.42;1.20;;;;;;;31.61;31.49;101149.42;1604021;88;25700;-67
2022/08/11 10:03:15;;;;;;;4.42;3.47;;;;;;;31.14;31.81;101148.83;1616323;88;26388;-68
2022/08/11 10:08:42;;;;;;;5.47;1.40;;;;;;;30.61;33.61;101150.81;1583671;89;27474;-67
2022/08/11 10:11:13;;;;;;;3.72;1.30;;;;;;;31.04;33.95;101152.02;1583977;89;25830;-68
2022/08/11 10:16:34;;;;;;;2.25;1.35;;;;;;;30.72;33.08;101140.86;1570130;89;26550;-68
2022/08/11 10:19:03;;;;;;;4.03;1.57;;;;;;;30.35;33.20;101130.95;1578636;89;25688;-70
2022/08/11 10:21:40;;;;;;;2.02;1.25;;;;;;;30.24;34.36;101133.70;1564252;90;27438;-67
2022/08/11 10:26:59;;;;;;;3.67;1.27;;;;;;;30.77;34.49;101126.99;1545646;90;25701;-66
2022/08/11 10:35:19;;;;;;;0.80;0.80;;;;;;;32.15;32.75;101114.59;1563923;90;27379;-70
2022/08/11 10:37:47;;;;;;;1.00;0.90;;;;;;;31.90;31.80;101109.59;1565043;90;26355;-67
2022/08/11 10:40:17;;;;;;;4.65;0.90;;;;;;;31.63;32.29;101114.04;1562908;90;25787;-68
2022/08/11 10:43:05;;;;;;;1.00;0.93;;;;;;;31.81;32.64;101106.64;1571558;90;25750;-67
2022/08/11 10:48:29;;;;;;;1.65;1.10;;;;;;;32.19;31.53;101097.71;1561259;90;27360;-68
2022/08/11 10:51:16;;;;;;;3.27;2.25;;;;;;;31.83;30.99;101086.00;1567005;89;25780;-67
2022/08/11 10:59:26;;;;;;;1.55;0.90;;;;;;;31.86;31.88;101082.34;1569235;90;25531;-66
2022/08/11 11:01:54;;;;;;;1.62;1.00;;;;;;;32.26;31.44;101074.35;1558938;90;28063;-66
2022/08/11 11:04:44;;;;;;;2.60;0.88;;;;;;;32.52;31.48;101070.44;1563214;90;25692;-66
2022/08/11 11:10:08;;;;;;;3.60;1.10;;;;;;;32.06;30.68;101075.24;1556224;90;25604;-66
2022/08/11 11:18:34;;;;;;;3.02;1.42;;;;;;;32.78;31.31;101060.73;1601209;88;25833;-67
2022/08/11 11:21:18;;;;;;;3.55;1.30;;;;;;;33.12;30.88;101053.09;1609259;88;25764;-66
2022/08/11 11:24:36;;;;;;;1.07;1.02;;;;;;;33.59;30.46;101066.28;1592707;88;25778;-69
2022/08/11 11:27:19;;;;;;;1.85;1.00;;;;;;;33.72;30.08;101048.07;1591327;88;25793;-68
2022/08/11 11:30:09;;;;;;;1.00;1.00;;;;;;;34.11;29.92;101046.72;1563285;90;27328;-68
2022/08/11 11:32:50;;;;;;;5.12;2.27;;;;;;;34.35;29.37;101047.09;1562277;90;25925;-68
2022/08/11 11:38:28;;;;;;;2.45;0.90;;;;;;;33.88;27.94;101068.94;1526214;93;25864;-68
2022/08/11 11:43:42;;;;;;;3.42;0.80;;;;;;;33.18;28.84;101032.95;1527006;92;27497;-67
2022/08/11 11:46:09;;;;;;;2.83;0.93;;;;;;;33.46;28.76;101035.47;1524879;92;29779;-72
2022/08/11 11:48:37;;;;;;;2.33;0.90;;;;;;;33.20;28.69;101033.28;1537714;90;25416;-69
2022/08/11 11:51:05;;;;;;;0.90;0.90;;;;;;;32.85;29.46;101035.30;1554056;90;34813;-71
2022/08/11 11:53:32;;;;;;;4.95;2.20;;;;;;;32.34;29.29;101040.75;1553993;89;25267;-67
2022/08/11 11:56:00;;;;;;;2.75;1.32;;;;;;;31.77;29.93;101029.02;1556371;89;27296;-68
2022/08/11 12:01:16;;;;;;;2.08;1.25;;;;;;;30.77;30.73;101023.69;1554414;88;25377;-71
2022/08/11 12:03:49;;;;;;;9.50;6.15;;;;;;;30.19;31.48;101035.97;1546964;88;25488;-67
2022/08/11 12:06:20;;;;;;;1.32;1.15;;;;;;;29.67;31.95;101021.11;1552351;89;25551;-68
2022/08/11 12:08:49;;;;;;;3.30;1.20;;;;;;;29.31;32.39;101024.47;1554030;91;27388;-68
2022/08/11 12:14:07;;;;;;;1.85;1.12;;;;;;;29.59;34.94;101017.64;1544557;89;25757;-67
2022/08/11 12:16:38;;;;;;;1.65;0.80;;;;;;;30.03;34.70;101006.58;1568526;89;26337;-67
2022/08/11 12:19:12;;;;;;;2.83;1.00;;;;;;;30.41;34.46;100996.52;1546375;91;25822;-66
2022/08/11 12:29:51;;;;;;;1.50;0.90;;;;;;;31.06;31.43;100995.34;1543939;91;25745;-68
2022/08/11 12:32:19;;;;;;;3.08;0.90;;;;;;;30.70;31.03;101003.09;1540646;90;25645;-70
2022/08/11 12:34:47;;;;;;;;;;;;;;;30.23;30.91;101002.42;1558221;90;27526;-68
2022/08/11 12:37:19;;;;;;;4.17;1.40;;;;;;;29.75;31.42;101008.64;1543701;91;26080;-68
2022/08/11 12:45:27;;;;;;;2.05;0.93;;;;;;;28.36;32.40;101005.15;1571402;90;25664;-69
2022/08/11 12:53:59;;;;;;;3.50;0.90;;;;;;;27.46;34.77;101005.34;1549133;90;25797;-67
2022/08/11 13:04:54;;;;;;;3.87;1.27;;;;;;;26.87;35.78;101001.92;1526980;92;25730;-69
2022/08/11 13:07:20;;;;;;;2.15;1.30;;;;;;;26.81;36.46;101002.13;1512040;93;25891;-69
2022/08/11 13:09:48;;;;;;;1.20;1.07;;;;;;;26.77;36.58;101001.38;1537920;91;25784;-69
2022/08/11 13:15:02;;;;;;;2.10;1.65;;;;;;;26.68;37.16;100994.88;1523155;92;27405;-69
2022/08/11 13:17:29;;;;;;;1.82;1.47;;;;;;;26.92;37.03;100995.14;1514304;93;25701;-68
2022/08/11 13:20:00;;;;;;;4.75;1.35;;;;;;;27.07;36.50;101002.80;1542454;90;25731;-68
2022/08/11 13:22:27;;;;;;;5.15;1.15;;;;;;;27.09;36.61;101005.95;1550657;90;25884;-69
2022/08/11 13:24:54;;;;;;;2.10;1.30;;;;;;;26.97;36.38;101009.98;1544827;91;25789;-67
2022/08/11 13:27:23;;;;;;;2.35;1.00;;;;;;;26.78;36.62;101007.91;1548436;91;28183;-66
2022/08/11 13:31:09;;;;;;;7.35;1.00;;;;;;;26.68;37.15;101001.81;1545123;91;25755;-69
2022/08/11 13:32:25;;;;;;;1.87;0.90;;;;;;;26.58;37.18;100993.69;1544623;91;25702;-69
2022/08/11 13:34:49;;;;;;;1.92;1.00;;;;;;;26.52;37.71;100991.73;1551839;91;25755;-68
2022/08/11 13:37:17;;;;;;;1.95;1.02;;;;;;;26.52;37.76;100995.89;1550277;90;25735;-67
2022/08/11 13:39:46;;;;;;;1.87;1.12;;;;;;;26.51;37.82;100997.88;1545908;91;27345;-67
2022/08/11 13:42:18;;;;;;;2.67;1.32;;;;;;;26.47;38.03;100999.25;1565870;89;25819;-69
2022/08/11 13:44:44;;;;;;;1.52;1.20;;;;;;;26.46;38.48;101002.45;1561977;89;25942;-69
2022/08/11 13:47:13;;;;;;;3.85;1.50;;;;;;;26.38;38.39;100997.52;1545762;91;25741;-68
2022/08/11 13:49:41;;;;;;;2.75;1.02;;;;;;;26.27;38.67;100992.58;1562345;89;25625;-68
2022/08/11 13:52:16;;;;;;;1.47;1.10;;;;;;;26.24;39.05;100995.58;1558733;91;27993;-68
2022/08/11 13:54:46;;;;;;;3.20;1.35;;;;;;;26.23;38.94;100991.20;1558182;91;25826;-70
2022/08/11 13:57:18;;;;;;;2.75;1.17;;;;;;;26.23;39.27;100984.27;1545821;91;25795;-70
2022/08/11 13:59:49;;;;;;;6.47;1.30;;;;;;;26.27;39.48;100983.69;1565867;89;25996;-70
2022/08/11 14:02:17;;;;;;;1.95;1.17;;;;;;;26.28;39.31;100987.24;1547251;91;25900;-67
2022/08/11 14:04:49;;;;;;;1.62;1.10;;;;;;;26.26;38.80;100985.47;1557732;90;27618;-69
2022/08/11 14:07:21;;;;;;;1.32;1.10;;;;;;;26.21;39.20;100978.34;1600172;88;25755;-69
2022/08/11 14:09:56;;;;;;;2.00;0.95;;;;;;;26.14;38.91;100987.29;1597104;87;25671;-70
2022/08/11 14:15:28;;;;;;;2.65;1.30;;;;;;;25.94;39.03;100991.83;1565808;90;25763;-70
2022/08/11 14:18:08;;;;;;;3.35;1.32;;;;;;;25.76;39.34;100995.20;1565386;91;27467;-68
2022/08/11 14:23:38;;;;;;;1.40;1.30;;;;;;;25.59;40.13;101000.94;1570151;89;25694;-68
2022/08/11 14:26:25;;;;;;;3.40;1.20;;;;;;;25.49;40.39;101004.70;1559095;89;25839;-69
2022/08/11 14:29:02;;;;;;;2.55;1.30;;;;;;;25.59;40.74;101000.37;1554058;91;25757;-68
2022/08/11 14:31:32;;;;;;;4.70;1.35;;;;;;;25.77;40.89;101004.51;1565101;90;27424;-68
2022/08/11 14:34:06;;;;;;;5.72;1.67;;;;;;;25.97;41.02;101003.55;1575997;89;25684;-68
2022/08/11 14:36:42;;;;;;;3.05;1.30;;;;;;;26.01;40.38;100998.77;1603407;88;25849;-66
2022/08/11 14:39:14;;;;;;;5.95;1.52;;;;;;;25.92;40.16;100990.05;1608445;87;26193;-69
2022/08/11 14:47:27;;;;;;;3.40;1.12;;;;;;;25.80;40.59;100978.00;1580328;89;25835;-71
2022/08/11 14:49:55;;;;;;;1.90;1.25;;;;;;;25.72;40.44;100974.43;1584550;89;25765;-68
2022/08/11 14:52:22;;;;;;;1.52;1.40;;;;;;;25.68;40.87;100981.36;1580094;89;25468;-69
2022/08/11 14:57:40;;;;;;;1.75;0.98;;;;;;;26.01;40.46;100971.66;1579005;89;27438;-69
2022/08/11 15:00:11;;;;;;;2.12;1.30;;;;;;;26.05;40.31;100965.50;1576771;89;26095;-68
2022/08/11 15:05:26;;;;;;;3.17;1.50;;;;;;;26.07;40.12;100968.09;1582622;88;26124;-69
2022/08/11 15:07:56;;;;;;;10.80;6.25;;;;;;;26.01;40.15;100970.28;1587591;88;25571;-69
2022/08/11 15:10:24;;;;;;;5.85;2.30;;;;;;;26.08;40.45;100964.71;1584330;89;27452;-69
2022/08/11 15:12:51;;;;;;;5.60;1.40;;;;;;;26.24;40.46;100967.06;1586229;88;25820;-67
2022/08/11 15:18:12;;;;;;;6.80;2.55;;;;;;;26.55;39.73;100968.14;1571210;89;25964;-70
2022/08/11 15:37:46;;;;;;;1.77;1.17;;;;;;;26.84;38.19;100953.55;1590984;89;27346;-70
2022/08/11 15:46:46;;;;;;;2.15;1.20;;;;;;;26.79;37.81;100947.64;1560625;90;26286;-71
2022/08/11 15:49:22;;;;;;;1.72;1.20;;;;;;;26.80;37.59;100944.47;1556899;91;25731;-70
2022/08/11 15:52:11;;;;;;;1.62;1.00;;;;;;;26.82;37.44;100933.75;1525949;94;27302;-69
2022/08/11 15:54:42;;;;;;;4.22;1.37;;;;;;;26.83;37.11;100943.66;1587883;89;25758;-69
2022/08/11 16:04:09;;;;;;;1.15;1.00;;;;;;;26.82;37.21;100944.06;1588238;89;25735;-68
2022/08/11 16:05:16;;;;;;;3.47;1.37;;;;;;;26.85;36.87;100943.23;1590333;88;27963;-70
2022/08/11 16:07:47;;;;;;;2.62;1.17;;;;;;;26.87;36.76;100937.28;1559571;88;25904;-67
2022/08/11 16:10:20;;;;;;;5.45;1.55;;;;;;;26.88;36.73;100937.48;1557384;90;25827;-68
2022/08/11 16:18:39;;;;;;;4.60;1.62;;;;;;;26.78;36.31;100933.56;1583524;89;27335;-68
2022/08/11 16:20:56;;;;;;;1.30;1.20;;;;;;;26.72;36.40;100939.37;1583464;89;25779;-68
2022/08/11 16:23:27;;;;;;;1.80;1.10;;;;;;;26.67;36.51;100933.64;1581779;89;25767;-67
2022/08/11 16:25:55;;;;;;;1.72;1.27;;;;;;;26.59;36.65;100928.67;1553371;90;25740;-67
2022/08/11 16:28:22;;;;;;;3.20;1.10;;;;;;;26.54;36.87;100931.09;1583220;88;25712;-68
2022/08/11 16:30:50;;;;;;;1.85;1.10;;;;;;;26.45;36.60;100930.14;1570074;89;27310;-67
2022/08/11 16:33:19;;;;;;;3.35;1.45;;;;;;;26.35;36.60;100928.20;1593324;88;25833;-66
2022/08/11 16:38:35;;;;;;;3.58;2.80;;;;;;;26.15;36.47;100928.66;1557230;90;25827;-67
2022/08/11 16:41:08;;;;;;;1.75;1.30;;;;;;;26.06;36.59;100930.46;1569575;89;25485;-67
2022/08/11 16:49:16;;;;;;;1.55;1.30;;;;;;;25.81;36.98;100923.58;1578352;89;25673;-67
2022/08/11 16:51:44;;;;;;;3.58;1.30;;;;;;;25.73;37.04;100928.93;1572872;90;26310;-68
2022/08/11 16:54:11;;;;;;;2.58;1.60;;;;;;;25.66;37.47;100935.84;1559527;91;25845;-66
2022/08/11 16:56:51;;;;;;;4.90;1.80;;;;;;;25.56;37.95;100926.95;1561174;90;27382;-69
2022/08/11 16:59:28;;;;;;;3.10;1.80;;;;;;;25.49;38.26;100933.31;1549537;90;25659;-67
2022/08/11 17:02:03;;;;;;;4.75;1.90;;;;;;;25.42;38.57;100929.13;1542553;91;26362;-69
2022/08/11 17:13:36;;;;;;;2.83;1.92;;;;;;;25.15;39.25;100935.03;1553385;89;26273;-68
2022/08/11 17:16:07;;;;;;;1.40;1.30;;;;;;;25.07;39.62;100935.60;1572907;89;26130;-69
2022/08/11 17:19:15;;;;;;;1.25;1.15;;;;;;;25.03;39.55;100942.31;1596062;88;25877;-71
2022/08/11 17:24:37;;;;;;;3.90;1.40;;;;;;;24.89;40.16;100939.73;1582431;89;28575;-70
2022/08/11 17:27:06;;;;;;;1.57;1.10;;;;;;;24.77;40.03;100941.45;1579439;89;25894;-69
2022/08/11 17:29:44;;;;;;;;;;;;;;;24.69;40.33;100945.37;1590842;89;25802;-70
2022/08/11 17:35:31;;;;;;;4.30;2.15;;;;;;;24.57;40.88;100948.72;1577205;88;25730;-71
2022/08/11 17:38:11;;;;;;;4.28;1.95;;;;;;;24.54;40.99;100950.05;1572738;90;27658;-70
2022/08/11 17:48:24;;;;;;;7.05;1.60;;;;;;;24.49;41.17;100951.21;1577939;90;25700;-69